createdAt,value
2017-06-17T06:36:12.635Z,1019.735
2017-06-17T06:38:56.055Z,1019.705
2017-06-17T06:42:34.829Z,1019.690
2017-06-17T06:47:47.671Z,1019.754
2017-06-17T06:50:31.870Z,1019.665
2017-06-17T06:53:26.335Z,1019.734
2017-06-17T06:58:02.782Z,1019.680
2017-06-17T07:08:19.425Z,1019.774
2017-06-17T07:11:02.946Z,1019.779
2017-06-17T07:13:56.857Z,1019.743
2017-06-17T07:16:51.395Z,1019.784
2017-06-17T07:23:32.038Z,1019.781
2017-06-17T07:26:16.063Z,1019.865
2017-06-17T07:32:05.178Z,1019.885
2017-06-17T07:35:11.284Z,1019.850
2017-06-17T07:38:12.510Z,1019.937
2017-06-17T07:45:22.306Z,1019.986
2017-06-17T07:48:06.284Z,1019.983
2017-06-17T07:51:00.412Z,1020.005
2017-06-17T07:53:55.055Z,1019.964
2017-06-17T07:56:49.874Z,1019.905
2017-06-17T07:59:44.696Z,1019.903
2017-06-17T08:02:39.708Z,1019.959
2017-06-17T08:05:34.568Z,1019.987
2017-06-17T08:11:24.469Z,1020.073
2017-06-17T08:14:19.421Z,1020.121
2017-06-17T08:17:14.281Z,1020.118
2017-06-17T08:20:09.248Z,1020.115
2017-06-17T08:23:04.112Z,1020.186
2017-06-17T08:25:59.112Z,1020.172
2017-06-17T08:28:54.028Z,1020.169
2017-06-17T08:31:49.112Z,1020.196
2017-06-17T08:34:43.940Z,1020.219
2017-06-17T08:37:38.944Z,1020.292
2017-06-17T08:40:33.784Z,1020.206
2017-06-17T08:43:28.661Z,1020.223
2017-06-17T08:46:23.628Z,1020.228
2017-06-17T08:49:18.579Z,1020.256
2017-06-17T08:52:13.489Z,1020.268
2017-06-17T08:55:08.448Z,1020.273
2017-06-17T08:58:03.421Z,1020.231
2017-06-17T09:00:58.513Z,1020.308
2017-06-17T09:03:53.593Z,1020.458
2017-06-17T09:06:48.790Z,1020.490
2017-06-17T09:09:43.783Z,1020.510
2017-06-17T09:12:38.902Z,1020.523
2017-06-17T09:18:28.751Z,1020.529
2017-06-17T09:21:23.777Z,1020.492
2017-06-17T09:24:18.957Z,1020.473
2017-06-17T09:27:14.040Z,1020.502
2017-06-17T09:30:09.272Z,1020.558
2017-06-17T09:33:04.287Z,1020.508
2017-06-17T09:35:59.418Z,1020.554
2017-06-17T09:38:54.448Z,1020.585
2017-06-17T09:41:49.504Z,1020.566
2017-06-17T09:44:44.631Z,1020.486
2017-06-17T09:47:39.900Z,1020.443
2017-06-17T09:50:35.245Z,1020.340
2017-06-17T09:53:30.542Z,1020.417
2017-06-17T09:56:25.719Z,1020.480
2017-06-17T09:59:21.082Z,1020.499
2017-06-17T10:02:16.413Z,1020.433
2017-06-17T10:05:11.804Z,1020.423
2017-06-17T10:08:07.610Z,1020.403
2017-06-17T10:11:03.802Z,1020.347
2017-06-17T10:13:59.788Z,1020.292
2017-06-17T10:16:55.700Z,1020.221
2017-06-17T10:19:51.787Z,1020.135
2017-06-17T10:22:47.912Z,1020.203
2017-06-17T10:28:39.979Z,1020.180
2017-06-17T10:31:35.881Z,1020.200
2017-06-17T10:34:31.512Z,1020.202
2017-06-17T10:37:26.990Z,1020.282
2017-06-17T10:40:22.531Z,1020.408
2017-06-17T10:46:13.608Z,1020.425
2017-06-17T10:49:09.143Z,1020.442
2017-06-17T10:52:04.678Z,1020.526
2017-06-17T10:57:55.808Z,1020.543
2017-06-17T11:00:51.376Z,1020.593
2017-06-17T11:03:46.943Z,1020.549
2017-06-17T11:06:42.400Z,1020.578
2017-06-17T11:09:37.963Z,1020.517
2017-06-17T11:12:33.403Z,1020.635
2017-06-17T11:15:28.919Z,1020.606
2017-06-17T11:24:15.434Z,1020.592
2017-06-17T11:27:10.892Z,1020.618
2017-06-17T11:30:06.385Z,1020.620
2017-06-17T11:33:01.968Z,1020.558
2017-06-17T11:35:57.395Z,1020.578
2017-06-17T11:38:52.913Z,1020.572
2017-06-17T11:41:48.451Z,1020.591
2017-06-17T11:44:43.861Z,1020.644
2017-06-17T11:47:39.285Z,1020.609
2017-06-17T11:50:34.605Z,1020.605
2017-06-17T11:53:30.050Z,1020.665
2017-06-17T11:56:25.423Z,1020.709
2017-06-17T11:59:20.917Z,1020.632
2017-06-17T12:02:16.356Z,1020.694
2017-06-17T12:05:11.824Z,1020.593
2017-06-17T12:08:07.228Z,1020.495
2017-06-17T12:11:02.703Z,1020.509
2017-06-17T12:13:58.265Z,1020.437
2017-06-17T12:16:53.807Z,1020.510
2017-06-17T12:19:49.244Z,1020.584
2017-06-17T12:22:44.713Z,1020.583
2017-06-17T12:25:40.120Z,1020.577
2017-06-17T12:28:35.507Z,1020.587
2017-06-17T12:31:30.920Z,1020.475
2017-06-17T12:34:26.393Z,1020.574
2017-06-17T12:37:21.825Z,1020.608
2017-06-17T12:40:17.320Z,1020.558
2017-06-17T12:43:12.804Z,1020.505
2017-06-17T12:46:08.285Z,1020.591
2017-06-17T12:49:03.666Z,1020.483
2017-06-17T12:54:54.918Z,1020.457
2017-06-17T12:57:50.340Z,1020.458
2017-06-17T13:00:45.745Z,1020.479
2017-06-17T13:03:41.066Z,1020.576
2017-06-17T13:06:36.529Z,1020.639
2017-06-17T13:09:31.954Z,1020.684
2017-06-17T13:12:27.370Z,1020.657
2017-06-17T13:15:22.786Z,1020.693
2017-06-17T13:18:18.165Z,1020.690
2017-06-17T13:21:13.832Z,1020.716
2017-06-17T13:27:04.845Z,1020.754
2017-06-17T13:30:00.316Z,1020.718
2017-06-17T13:32:55.796Z,1020.763
2017-06-17T13:35:51.289Z,1020.741
2017-06-17T13:38:46.744Z,1020.797
2017-06-17T13:41:42.019Z,1020.784
2017-06-17T13:44:37.470Z,1020.805
2017-06-17T13:47:32.911Z,1020.860
2017-06-17T13:50:28.348Z,1020.884
2017-06-17T13:53:23.865Z,1020.942
2017-06-17T13:56:19.285Z,1021.005
2017-06-17T13:59:14.768Z,1020.910
2017-06-17T14:02:10.193Z,1020.969
2017-06-17T14:05:05.637Z,1021.016
2017-06-17T14:08:01.168Z,1020.968
2017-06-17T14:10:56.603Z,1020.990
2017-06-17T14:13:52.046Z,1021.065
2017-06-17T14:16:47.463Z,1021.105
2017-06-17T14:22:38.507Z,1021.036
2017-06-17T14:25:33.997Z,1021.018
2017-06-17T14:28:29.423Z,1021.043
2017-06-17T14:31:24.838Z,1021.059
2017-06-17T14:34:20.298Z,1021.043
2017-06-17T14:37:15.785Z,1021.091
2017-06-17T14:40:11.127Z,1021.068
2017-06-17T14:43:06.622Z,1021.020
2017-06-17T14:46:02.052Z,1021.085
2017-06-17T14:48:57.486Z,1021.097
2017-06-17T14:51:52.830Z,1021.056
2017-06-17T14:54:48.268Z,1021.080
2017-06-17T14:57:44.108Z,1021.104
2017-06-17T15:00:39.377Z,1021.134
2017-06-17T15:03:35.118Z,1021.170
2017-06-17T15:06:30.281Z,1021.201
2017-06-17T15:09:25.695Z,1021.213
2017-06-17T15:12:21.129Z,1021.254
2017-06-17T15:15:16.528Z,1021.249
2017-06-17T15:18:11.936Z,1021.212
2017-06-17T15:21:07.379Z,1021.217
2017-06-17T15:24:02.875Z,1021.264
2017-06-17T15:26:58.370Z,1021.249
2017-06-17T15:29:54.365Z,1021.236
2017-06-17T15:32:49.626Z,1021.276
2017-06-17T15:38:40.342Z,1021.342
2017-06-17T15:41:35.660Z,1021.324
2017-06-17T15:44:31.056Z,1021.306
2017-06-17T15:47:26.883Z,1021.312
2017-06-17T15:50:22.318Z,1021.276
2017-06-17T15:53:17.814Z,1021.290
2017-06-17T15:56:13.318Z,1021.306
2017-06-17T15:59:08.785Z,1021.329
2017-06-17T16:02:04.221Z,1021.323
2017-06-17T16:04:59.581Z,1021.302
2017-06-17T16:07:54.990Z,1021.316
2017-06-17T16:13:45.847Z,1021.330
2017-06-17T16:16:41.285Z,1021.318
2017-06-17T16:19:36.768Z,1021.330
2017-06-17T16:22:32.152Z,1021.340
2017-06-17T16:25:27.539Z,1021.330
2017-06-17T16:28:22.968Z,1021.406
2017-06-17T16:31:18.358Z,1021.417
2017-06-17T16:34:13.841Z,1021.438
2017-06-17T16:37:09.235Z,1021.441
2017-06-17T16:40:04.681Z,1021.451
2017-06-17T16:43:00.052Z,1021.482
2017-06-17T16:45:55.391Z,1021.466
2017-06-17T16:48:50.934Z,1021.468
2017-06-17T16:51:46.156Z,1021.467
2017-06-17T16:54:41.606Z,1021.460
2017-06-17T16:57:36.998Z,1021.456
2017-06-17T17:00:32.404Z,1021.469
2017-06-17T17:03:27.767Z,1021.511
2017-06-17T17:06:23.420Z,1021.521
2017-06-17T17:09:18.786Z,1021.534
2017-06-17T17:12:14.315Z,1021.545
2017-06-17T17:15:09.715Z,1021.582
2017-06-17T17:18:05.234Z,1021.591
2017-06-17T17:21:00.697Z,1021.567
2017-06-17T17:23:56.099Z,1021.606
2017-06-17T17:26:51.492Z,1021.628
2017-06-17T17:29:46.991Z,1021.659
2017-06-17T17:32:53.661Z,1021.675
2017-06-17T17:35:44.269Z,1021.749
2017-06-17T17:38:39.656Z,1021.771
2017-06-17T17:41:35.095Z,1021.825
2017-06-17T17:44:30.417Z,1021.809
2017-06-17T17:47:26.001Z,1021.784
2017-06-17T17:50:21.759Z,1021.813
2017-06-17T17:59:08.058Z,1021.889
2017-06-17T18:02:03.431Z,1021.924
2017-06-17T18:04:59.117Z,1021.951
2017-06-17T18:10:49.958Z,1021.954
2017-06-17T18:13:45.326Z,1021.920
2017-06-17T18:16:40.872Z,1021.923
2017-06-17T18:19:36.233Z,1021.903
2017-06-17T18:22:31.588Z,1021.903
2017-06-17T18:25:27.065Z,1021.906
2017-06-17T18:28:22.455Z,1021.926
2017-06-17T18:31:17.917Z,1021.917
2017-06-17T18:34:13.501Z,1021.925
2017-06-17T18:37:08.866Z,1021.949
2017-06-17T18:40:04.221Z,1022.007
2017-06-17T18:42:59.806Z,1022.015
2017-06-17T18:45:55.110Z,1022.004
2017-06-17T18:48:50.631Z,1022.016
2017-06-17T18:51:45.906Z,1022.041
2017-06-17T18:54:41.293Z,1022.056
2017-06-17T18:57:36.637Z,1022.077
2017-06-17T19:00:32.060Z,1022.135
2017-06-17T19:03:27.447Z,1022.191
2017-06-17T19:06:22.833Z,1022.241
2017-06-17T19:09:18.151Z,1022.284
2017-06-17T19:12:13.456Z,1022.390
2017-06-17T19:15:08.823Z,1022.458
2017-06-17T19:18:04.209Z,1022.494
2017-06-17T19:20:59.604Z,1022.542
2017-06-17T19:23:55.005Z,1022.573
2017-06-17T19:26:50.371Z,1022.608
2017-06-17T19:29:45.794Z,1022.662
2017-06-17T19:32:41.122Z,1022.710
2017-06-17T19:35:36.425Z,1022.756
2017-06-17T19:38:31.622Z,1022.770
2017-06-17T19:41:26.868Z,1022.816
2017-06-17T19:44:22.288Z,1022.827
2017-06-17T19:47:18.026Z,1022.846
2017-06-17T19:50:13.516Z,1022.804
2017-06-17T19:53:08.816Z,1022.828
2017-06-17T19:56:04.044Z,1022.863
2017-06-17T19:58:59.372Z,1022.932
2017-06-17T20:01:54.664Z,1022.993
2017-06-17T20:04:50.157Z,1023.018
2017-06-17T20:07:45.192Z,1023.033
2017-06-17T20:10:40.481Z,1023.046
2017-06-17T20:16:31.011Z,1023.052
2017-06-17T20:19:26.333Z,1023.057
2017-06-17T20:22:21.624Z,1023.086
2017-06-17T20:25:16.904Z,1023.090
2017-06-17T20:28:12.018Z,1023.146
2017-06-17T20:31:07.264Z,1023.190
2017-06-17T20:34:02.620Z,1023.195
2017-06-17T20:36:57.853Z,1023.205
2017-06-17T20:39:53.061Z,1023.246
2017-06-17T20:42:48.244Z,1023.282
2017-06-17T20:45:43.395Z,1023.327
2017-06-17T20:48:38.517Z,1023.372
2017-06-17T20:51:33.625Z,1023.384
2017-06-17T20:54:28.891Z,1023.421
2017-06-17T21:00:19.207Z,1023.483
2017-06-17T21:03:14.410Z,1023.502
2017-06-17T21:06:09.844Z,1023.534
2017-06-17T21:09:05.031Z,1023.589
2017-06-17T21:12:00.279Z,1023.642
2017-06-17T21:14:55.527Z,1023.705
2017-06-17T21:17:50.626Z,1023.708
2017-06-17T21:20:45.832Z,1023.725
2017-06-17T21:23:41.041Z,1023.776
2017-06-17T21:26:36.302Z,1023.826
2017-06-17T21:29:31.448Z,1023.889
2017-06-17T21:32:26.744Z,1023.931
2017-06-17T21:35:21.754Z,1023.949
2017-06-17T21:40:43.777Z,1023.935
2017-06-17T21:43:28.667Z,1023.989
2017-06-17T21:49:18.235Z,1024.033
2017-06-17T21:52:24.623Z,1024.064
2017-06-17T22:02:58.251Z,1024.115
2017-06-17T22:07:23.931Z,1024.138
2017-06-17T22:10:08.769Z,1024.153
2017-06-17T22:21:54.233Z,1024.186
2017-06-17T22:37:58.815Z,1024.235
2017-06-17T22:57:17.077Z,1024.352
2017-06-17T23:07:21.567Z,1024.322
2017-06-17T23:27:25.103Z,1024.361
